createdAt,value
2022-12-16T00:01:41.763Z,89862.56
2022-12-16T00:04:09.624Z,89858.47
2022-12-16T00:06:37.643Z,89873.88
2022-12-16T00:09:09.247Z,89904.66
2022-12-16T00:11:37.261Z,89881.44
2022-12-16T00:14:05.600Z,89919.06
2022-12-16T00:16:33.451Z,89914.84
2022-12-16T00:19:01.675Z,89914.84
2022-12-16T00:21:29.758Z,89930.78
2022-12-16T00:23:58.572Z,89944.06
2022-12-16T00:26:29.737Z,89957.69
2022-12-16T00:28:57.772Z,89982.03
2022-12-16T00:31:27.762Z,89999.41
2022-12-16T00:33:57.674Z,90020.50
2022-12-16T00:36:25.492Z,90044.09
2022-12-16T00:38:53.940Z,90073.34
2022-12-16T00:41:25.480Z,90101.25
2022-12-16T00:43:54.682Z,90132.31
2022-12-16T00:46:23.031Z,90160.03
2022-12-16T00:48:53.700Z,90189.53
2022-12-16T00:51:23.507Z,90212.94
2022-12-16T00:53:51.757Z,90243.66
2022-12-16T00:56:20.244Z,90256.72
2022-12-16T00:58:48.518Z,90251.63
2022-12-16T01:01:17.841Z,90260.63
2022-12-16T01:03:46.147Z,90279.81
2022-12-16T01:06:16.748Z,90288.94
2022-12-16T01:08:48.336Z,90328.44
2022-12-16T01:11:17.171Z,90338.78
2022-12-16T01:13:45.657Z,90365.97
2022-12-16T01:16:15.522Z,90393.16
2022-12-16T01:18:45.070Z,90417.03
2022-12-16T01:21:16.291Z,90428.41
2022-12-16T01:23:48.506Z,90422.56
2022-12-16T01:26:18.919Z,90402.94
2022-12-16T01:28:49.170Z,90381.84
2022-12-16T01:31:18.403Z,90361.88
2022-12-16T01:33:50.943Z,90342.88
2022-12-16T01:36:20.073Z,90338.22
2022-12-16T01:38:48.433Z,90307.91
2022-12-16T01:41:18.706Z,90248.16
2022-12-16T01:43:47.396Z,90250.84
2022-12-16T01:46:19.973Z,90223.13
2022-12-16T01:48:53.425Z,90203.38
2022-12-16T01:51:28.032Z,90192.84
2022-12-16T01:53:59.000Z,90177.44
2022-12-16T01:56:31.488Z,90158.47
2022-12-16T01:59:00.646Z,90157.94
2022-12-16T02:01:29.063Z,90159.25
2022-12-16T02:04:02.498Z,90188.75
2022-12-16T02:06:31.431Z,90182.66
2022-12-16T02:09:03.989Z,90193.63
2022-12-16T02:12:06.838Z,90155.16
2022-12-16T02:14:52.055Z,90138.84
2022-12-16T02:17:29.562Z,90140.19
2022-12-16T02:20:30.976Z,90145.41
2022-12-16T02:23:17.848Z,90141.53
2022-12-16T02:26:10.289Z,90136.44
2022-12-16T02:28:58.094Z,90118.25
2022-12-16T02:31:35.039Z,90126.66
2022-12-16T02:34:13.797Z,90099.94
2022-12-16T02:36:50.445Z,90116.34
2022-12-16T02:39:23.122Z,90119.47
2022-12-16T02:41:56.484Z,90138.41
2022-12-16T02:44:33.713Z,90133.31
2022-12-16T02:47:03.101Z,90155.59
2022-12-16T02:49:47.014Z,90131.34
2022-12-16T02:52:16.176Z,90118.47
2022-12-16T02:54:45.007Z,90119.47
2022-12-16T02:57:27.911Z,90144.63
2022-12-16T03:00:04.300Z,90156.94
2022-12-16T03:02:39.684Z,90183.09
2022-12-16T03:05:14.235Z,90207.50
2022-12-16T03:07:44.367Z,90211.41
2022-12-16T03:10:18.512Z,90235.22
2022-12-16T03:12:47.595Z,90244.22
2022-12-16T03:15:18.593Z,90262.19
2022-12-16T03:17:52.535Z,90249.66
2022-12-16T03:20:25.928Z,90262.97
2022-12-16T03:22:58.622Z,90258.72
2022-12-16T03:25:29.295Z,90281.72
2022-12-16T03:28:05.572Z,90284.47
2022-12-16T03:30:37.604Z,90257.50
2022-12-16T03:33:13.233Z,90259.06
2022-12-16T03:35:45.966Z,90262.19
2022-12-16T03:38:15.541Z,90278.81
2022-12-16T03:40:45.150Z,90263.25
2022-12-16T03:43:15.240Z,90274.72
2022-12-16T03:45:46.633Z,90244.22
2022-12-16T03:48:17.375Z,90249.31
2022-12-16T03:50:45.559Z,90243.66
2022-12-16T03:53:13.457Z,90254.81
2022-12-16T03:55:41.294Z,90288.38
2022-12-16T03:58:09.274Z,90293.25
2022-12-16T04:00:37.231Z,90294.22
2022-12-16T04:03:06.372Z,90286.81
2022-12-16T04:05:35.692Z,90294.03
2022-12-16T04:08:04.093Z,90298.13
2022-12-16T04:10:49.773Z,90304.00
2022-12-16T04:13:35.574Z,90307.13
2022-12-16T04:16:21.062Z,90307.91
2022-12-16T04:19:07.015Z,90320.63
2022-12-16T04:21:53.452Z,90304.78
2022-12-16T04:24:31.350Z,90263.03
2022-12-16T04:27:16.440Z,90255.75
2022-12-16T04:29:58.274Z,90242.66
2022-12-16T04:32:26.798Z,90223.97
2022-12-16T04:34:53.945Z,90204.16
2022-12-16T04:37:40.723Z,90224.16
2022-12-16T04:40:27.018Z,90249.31
2022-12-16T04:43:12.276Z,90256.72
2022-12-16T04:45:58.159Z,90260.63
2022-12-16T04:48:43.614Z,90256.09
2022-12-16T04:51:29.001Z,90270.38
2022-12-16T04:54:24.106Z,90285.25
2022-12-16T04:57:09.588Z,90298.56
2022-12-16T04:59:54.961Z,90293.81
2022-12-16T05:02:40.420Z,90294.03
2022-12-16T05:05:29.769Z,90303.22
2022-12-16T05:08:15.249Z,90287.38
2022-12-16T05:11:02.816Z,90280.16
2022-12-16T05:13:48.145Z,90271.94
2022-12-16T05:16:45.262Z,90282.69
2022-12-16T05:19:31.811Z,90269.41
2022-12-16T05:22:18.098Z,90252.41
2022-12-16T05:25:03.380Z,90215.50
2022-12-16T05:27:50.111Z,90177.44
2022-12-16T05:30:35.814Z,90129.78
2022-12-16T05:33:21.281Z,90117.91
2022-12-16T05:36:06.462Z,90110.66
2022-12-16T05:38:52.248Z,90115.38
2022-12-16T05:41:37.511Z,90137.19
2022-12-16T05:44:24.861Z,90162.38
2022-12-16T05:47:10.454Z,90190.31
2022-12-16T05:49:56.132Z,90209.09
2022-12-16T05:52:41.200Z,90241.09
2022-12-16T05:55:33.589Z,90230.56
2022-12-16T05:58:19.673Z,90188.06
2022-12-16T06:01:06.298Z,90159.47
2022-12-16T06:03:51.664Z,90105.41
2022-12-16T06:06:36.201Z,90052.50
2022-12-16T06:09:22.165Z,90012.31
2022-12-16T06:12:16.972Z,89979.94
2022-12-16T06:15:02.343Z,89934.75
2022-12-16T06:17:49.180Z,89890.03
2022-12-16T06:20:34.491Z,89887.69
2022-12-16T06:23:24.097Z,89896.88
2022-12-16T06:26:10.892Z,89893.34
2022-12-16T06:28:56.077Z,89903.28
2022-12-16T06:31:41.436Z,89905.06
2022-12-16T06:34:27.953Z,89899.97
2022-12-16T06:37:13.090Z,89882.81
2022-12-16T06:39:58.847Z,89869.22
2022-12-16T06:42:44.508Z,89840.56
2022-12-16T06:45:34.529Z,89808.06
2022-12-16T06:48:20.207Z,89758.59
2022-12-16T06:51:07.077Z,89687.06
2022-12-16T06:53:52.179Z,89661.66
2022-12-16T06:56:37.513Z,89600.34
2022-12-16T06:59:23.200Z,89548.41
2022-12-16T07:02:08.578Z,89488.53
2022-12-16T07:04:54.149Z,89462.06
2022-12-16T07:07:40.957Z,89406.94
2022-12-16T07:10:27.266Z,89357.16
2022-12-16T07:13:16.225Z,89321.34
2022-12-16T07:16:01.599Z,89315.59
2022-12-16T07:18:47.443Z,89283.84
2022-12-16T07:21:32.629Z,89239.53
2022-12-16T07:24:19.849Z,89201.31
2022-12-16T07:27:05.416Z,89180.13
2022-12-16T07:29:50.491Z,89149.84
2022-12-16T07:32:37.825Z,89123.84
2022-12-16T07:35:24.097Z,89108.00
2022-12-16T07:38:09.367Z,89082.00
2022-12-16T07:40:57.408Z,89046.38
2022-12-16T07:43:42.955Z,89044.38
2022-12-16T07:46:28.336Z,89096.44
2022-12-16T07:49:13.633Z,89172.53
2022-12-16T07:51:58.883Z,89211.78
2022-12-16T07:54:44.371Z,89251.88
2022-12-16T07:57:31.470Z,89305.91
2022-12-16T08:00:28.329Z,89351.75
2022-12-16T08:03:13.765Z,89393.47
2022-12-16T08:05:59.624Z,89427.13
2022-12-16T08:08:45.115Z,89433.25
2022-12-16T08:11:30.925Z,89445.72
2022-12-16T08:14:17.369Z,89448.81
2022-12-16T08:17:03.417Z,89449.81
2022-12-16T08:19:48.514Z,89443.75
2022-12-16T08:22:33.771Z,89449.38
2022-12-16T08:25:19.136Z,89461.63
2022-12-16T08:28:05.114Z,89463.94
2022-12-16T08:30:53.976Z,89460.06
2022-12-16T08:33:39.909Z,89458.53
2022-12-16T08:36:25.717Z,89435.59
2022-12-16T08:39:12.181Z,89425.88
2022-12-16T08:41:57.450Z,89411.34
2022-12-16T08:44:43.503Z,89431.97
2022-12-16T08:47:30.130Z,89454.44
2022-12-16T08:50:15.945Z,89525.22
2022-12-16T08:53:01.767Z,89568.41
2022-12-16T08:55:47.189Z,89609.41
2022-12-16T08:58:32.481Z,89645.63
2022-12-16T09:01:18.061Z,89681.75
2022-12-16T09:04:05.093Z,89762.81
2022-12-16T09:06:51.185Z,89798.66
2022-12-16T09:09:36.753Z,89855.50
2022-12-16T09:12:24.064Z,89900.34
2022-12-16T09:15:09.317Z,89915.94
2022-12-16T09:17:54.805Z,89917.50
2022-12-16T09:20:41.447Z,89938.53
2022-12-16T09:23:27.158Z,89967.09
2022-12-16T09:26:12.449Z,90023.59
2022-12-16T09:28:57.799Z,90049.75
2022-12-16T09:31:44.316Z,90044.66
2022-12-16T09:34:29.530Z,90050.75
2022-12-16T09:37:27.590Z,90072.34
2022-12-16T09:40:13.090Z,90080.56
2022-12-16T09:43:09.418Z,90067.69
2022-12-16T09:46:08.089Z,90057.94
2022-12-16T09:49:04.979Z,90057.94
2022-12-16T09:51:53.345Z,90066.69
2022-12-16T09:54:45.621Z,90099.31
2022-12-16T09:57:33.058Z,90168.81
2022-12-16T10:00:21.288Z,90208.31
2022-12-16T10:03:08.828Z,90239.13
2022-12-16T10:06:00.271Z,90262.41
2022-12-16T10:08:56.706Z,90304.56
2022-12-16T10:11:59.557Z,90361.88
2022-12-16T10:14:54.312Z,90393.53
2022-12-16T10:17:44.389Z,90478.06
2022-12-16T10:20:39.551Z,90558.31
2022-12-16T10:23:33.045Z,90630.41
2022-12-16T10:26:24.262Z,90631.97
2022-12-16T10:29:21.914Z,90655.41
2022-12-16T10:32:07.619Z,90682.09
2022-12-16T10:34:56.899Z,90701.69
2022-12-16T10:37:50.808Z,90729.72
2022-12-16T10:40:49.598Z,90767.94
2022-12-16T10:43:39.374Z,90812.25
2022-12-16T10:46:35.148Z,90856.00
2022-12-16T10:49:21.757Z,90946.66
2022-12-16T10:52:08.319Z,91029.34
2022-12-16T10:54:58.984Z,91104.00
2022-12-16T10:57:56.039Z,91136.81
2022-12-16T11:01:00.157Z,91043.09
2022-12-16T11:03:49.194Z,91034.84
2022-12-16T11:06:38.586Z,91022.66
2022-12-16T11:09:38.866Z,91066.31
2022-12-16T11:12:40.114Z,91216.38
2022-12-16T11:15:47.739Z,91309.44
2022-12-16T11:18:35.184Z,91276.22
2022-12-16T11:21:40.681Z,91225.44
2022-12-16T11:24:30.827Z,91187.31
2022-12-16T11:27:18.648Z,91200.69
2022-12-16T11:30:11.634Z,91175.72
2022-12-16T11:33:00.296Z,91196.16
2022-12-16T11:35:50.179Z,91413.19
2022-12-16T11:38:50.465Z,91729.16
2022-12-16T11:41:44.881Z,91841.03
2022-12-16T11:44:39.355Z,91789.53
2022-12-16T11:47:34.572Z,91645.91
2022-12-16T11:50:21.675Z,91499.84
2022-12-16T11:53:13.647Z,91353.34
2022-12-16T11:56:10.855Z,91265.97
2022-12-16T11:59:04.567Z,91255.56
2022-12-16T12:01:55.487Z,91254.00
2022-12-16T12:04:41.699Z,91205.41
2022-12-16T12:07:48.025Z,91127.59
2022-12-16T12:10:49.580Z,91056.47
2022-12-16T12:13:48.298Z,91041.13
2022-12-16T12:16:40.290Z,91013.81
2022-12-16T12:19:31.918Z,90987.50
2022-12-16T12:22:21.433Z,90948.28
2022-12-16T12:25:14.383Z,90935.88
2022-12-16T12:28:09.084Z,90906.44
2022-12-16T12:31:02.525Z,90881.72
2022-12-16T12:33:56.713Z,90854.09
2022-12-16T12:36:53.769Z,90808.75
2022-12-16T12:39:47.478Z,90744.66
2022-12-16T12:42:49.517Z,90726.78
2022-12-16T12:45:59.637Z,90706.00
2022-12-16T12:48:56.091Z,90703.66
2022-12-16T12:51:49.389Z,90702.09
2022-12-16T12:54:43.384Z,90701.16
2022-12-16T12:57:34.030Z,90705.00
2022-12-16T13:00:23.513Z,90752.88
2022-12-16T13:03:18.891Z,90753.44
2022-12-16T13:06:06.918Z,90705.22
2022-12-16T13:09:02.072Z,90648.28
2022-12-16T13:11:48.158Z,90601.44
2022-12-16T13:15:11.349Z,90555.63
2022-12-16T13:18:30.250Z,90482.59
2022-12-16T13:21:17.495Z,90441.16
2022-12-16T13:24:03.797Z,90379.28
2022-12-16T13:26:51.519Z,90337.66
2022-12-16T13:29:39.818Z,90322.22
2022-12-16T13:32:36.766Z,90292.69
2022-12-16T13:35:33.369Z,90254.41
2022-12-16T13:38:22.652Z,90216.91
2022-12-16T13:41:13.103Z,90165.13
2022-12-16T13:44:07.215Z,90149.16
2022-12-16T13:47:07.047Z,90153.25
2022-12-16T13:50:05.315Z,90109.69
2022-12-16T13:53:02.154Z,90063.47
2022-12-16T13:55:50.581Z,90022.47
2022-12-16T13:58:48.077Z,90000.41
2022-12-16T14:01:38.446Z,89957.69
2022-12-16T14:04:28.815Z,89924.13
2022-12-16T14:07:24.367Z,90004.50
2022-12-16T14:10:10.528Z,90006.06
2022-12-16T14:13:19.439Z,90031.66
2022-12-16T14:16:16.829Z,90087.63
2022-12-16T14:19:16.305Z,90154.81
2022-12-16T14:22:09.958Z,90212.94
2022-12-16T14:24:57.650Z,90291.13
2022-12-16T14:27:43.516Z,90370.50
2022-12-16T14:30:37.659Z,90448.16
2022-12-16T14:33:45.815Z,90512.94
2022-12-16T14:36:41.946Z,90565.41
2022-12-16T14:39:29.420Z,90586.31
2022-12-16T14:42:14.908Z,90622.56
2022-12-16T14:45:03.804Z,90639.84
2022-12-16T14:47:56.409Z,90652.94
2022-12-16T14:50:45.377Z,90662.53
2022-12-16T14:53:37.149Z,90691.31
2022-12-16T14:56:34.857Z,90707.00
2022-12-16T14:59:28.273Z,90733.84
2022-12-16T15:02:16.764Z,90737.97
2022-12-16T15:05:09.592Z,90758.34
2022-12-16T15:07:56.336Z,90778.94
2022-12-16T15:10:45.701Z,90817.34
2022-12-16T15:13:36.427Z,90885.63
2022-12-16T15:16:24.384Z,90932.75
2022-12-16T15:19:17.971Z,90933.16
2022-12-16T15:22:06.364Z,90908.03
2022-12-16T15:24:56.262Z,90839.19
2022-12-16T15:27:44.017Z,90745.22
2022-12-16T15:30:53.972Z,90665.31
2022-12-16T15:33:41.727Z,90614.34
2022-12-16T15:36:40.577Z,90599.88
2022-12-16T15:39:36.990Z,90629.22
2022-12-16T15:42:23.337Z,90682.28
2022-12-16T15:45:10.858Z,90707.56
2022-12-16T15:47:57.221Z,90726.78
2022-12-16T15:50:45.016Z,90648.84
2022-12-16T15:53:36.400Z,90568.53
2022-12-16T15:56:23.712Z,90471.81
2022-12-16T15:59:08.202Z,90397.50
2022-12-16T16:02:04.515Z,90328.44
2022-12-16T16:05:04.826Z,90290.34
2022-12-16T16:07:50.185Z,90239.53
2022-12-16T16:10:38.460Z,90191.16
2022-12-16T16:13:25.122Z,90186.06
2022-12-16T16:16:10.661Z,90215.34
2022-12-16T16:18:56.856Z,90206.16
2022-12-16T16:21:42.793Z,90172.78
2022-12-16T16:24:28.512Z,90146.59
2022-12-16T16:27:13.903Z,90120.44
2022-12-16T16:30:00.618Z,90113.81
2022-12-16T16:32:45.813Z,90089.59
2022-12-16T16:35:31.925Z,90047.41
2022-12-16T16:38:18.748Z,90066.34
2022-12-16T16:41:04.797Z,90075.88
2022-12-16T16:43:50.066Z,90082.53
2022-12-16T16:46:47.437Z,90071.78
2022-12-16T16:49:42.149Z,90102.03
2022-12-16T16:52:30.642Z,90136.84
2022-12-16T16:55:15.953Z,90136.97
2022-12-16T16:58:01.645Z,90189.53
2022-12-16T17:00:46.934Z,90220.03
2022-12-16T17:04:28.284Z,90235.22
2022-12-16T17:07:15.018Z,90250.28
2022-12-16T17:10:00.188Z,90258.50
2022-12-16T17:12:48.457Z,90246.75
2022-12-16T17:15:36.381Z,90241.09
2022-12-16T17:18:23.155Z,90238.97
2022-12-16T17:21:08.917Z,90215.50
2022-12-16T17:23:55.432Z,90220.22
2022-12-16T17:26:41.778Z,90196.59
2022-12-16T17:29:36.302Z,90191.88
2022-12-16T17:32:22.620Z,90168.47
2022-12-16T17:35:07.888Z,90130.00
2022-12-16T17:37:53.697Z,90086.06
2022-12-16T17:40:40.951Z,90051.72
2022-12-16T17:43:26.859Z,90005.28
2022-12-16T17:46:16.701Z,89995.75
2022-12-16T17:49:02.685Z,89956.91
2022-12-16T17:51:47.968Z,89926.13
2022-12-16T17:54:33.332Z,89888.25
2022-12-16T17:57:20.110Z,89900.41
2022-12-16T18:00:06.560Z,89875.41
2022-12-16T18:02:52.167Z,89878.16
2022-12-16T18:05:44.420Z,89875.41
2022-12-16T18:08:30.464Z,89862.66
2022-12-16T18:11:18.174Z,89849.31
2022-12-16T18:14:05.431Z,89817.34
2022-12-16T18:16:51.174Z,89776.06
2022-12-16T18:19:36.635Z,89750.53
2022-12-16T18:22:22.305Z,89771.00
2022-12-16T18:25:08.035Z,89762.25
2022-12-16T18:27:55.496Z,89768.34
2022-12-16T18:30:42.042Z,89725.44
2022-12-16T18:33:27.344Z,89690.38
2022-12-16T18:36:12.591Z,89656.13
2022-12-16T18:38:57.897Z,89646.63
2022-12-16T18:41:43.168Z,89626.97
2022-12-16T18:44:31.573Z,89610.81
2022-12-16T18:47:18.246Z,89605.19
2022-12-16T18:50:04.079Z,89604.19
2022-12-16T18:52:50.079Z,89610.81
2022-12-16T18:55:35.720Z,89627.72
2022-12-16T18:58:49.742Z,89647.41
2022-12-16T19:01:28.731Z,89647.63
2022-12-16T19:04:15.945Z,89653.81
2022-12-16T19:07:01.283Z,89635.91
2022-12-16T19:09:46.634Z,89638.44
2022-12-16T19:12:32.116Z,89650.72
2022-12-16T19:15:17.545Z,89654.78
2022-12-16T19:18:02.764Z,89653.81
2022-12-16T19:20:49.251Z,89607.25
2022-12-16T19:23:35.196Z,89627.72
2022-12-16T19:26:21.358Z,89624.19
2022-12-16T19:29:06.987Z,89701.31
2022-12-16T19:31:52.197Z,89732.63
2022-12-16T19:34:37.916Z,89767.13
2022-12-16T19:37:24.732Z,89802.00
2022-12-16T19:40:11.076Z,89817.56
2022-12-16T19:42:56.390Z,89841.13
2022-12-16T19:45:43.384Z,89875.75
2022-12-16T19:48:28.594Z,89910.31
2022-12-16T19:51:17.389Z,89943.63
2022-12-16T19:54:04.720Z,89954.91
2022-12-16T19:56:52.133Z,89976.38
2022-12-16T19:59:37.936Z,89980.28
2022-12-16T20:02:24.027Z,89976.38
2022-12-16T20:05:11.015Z,89961.56
2022-12-16T20:07:56.526Z,89947.94
2022-12-16T20:10:43.397Z,89945.06
2022-12-16T20:13:30.381Z,89969.75
2022-12-16T20:16:20.479Z,90040.97
2022-12-16T20:19:05.955Z,90097.16
2022-12-16T20:21:55.086Z,90165.69
2022-12-16T20:24:43.780Z,90221.72
2022-12-16T20:27:30.991Z,90288.38
2022-12-16T20:30:16.168Z,90336.66
2022-12-16T20:33:01.654Z,90360.31
2022-12-16T20:35:47.979Z,90381.41
2022-12-16T20:38:33.260Z,90412.72
2022-12-16T20:41:23.416Z,90575.34
2022-12-16T20:44:10.389Z,90666.41
2022-12-16T20:46:56.540Z,90748.34
2022-12-16T20:49:43.146Z,90895.25
2022-12-16T20:52:29.061Z,90934.50
2022-12-16T20:55:14.485Z,90997.13
2022-12-16T20:58:14.075Z,91079.22
2022-12-16T21:01:01.021Z,91100.66
2022-12-16T21:03:46.689Z,91136.22
2022-12-16T21:06:34.418Z,91251.81
2022-12-16T21:09:19.822Z,91328.53
2022-12-16T21:12:05.270Z,91391.13
2022-12-16T21:14:50.620Z,91398.63
2022-12-16T21:17:39.224Z,91358.06
2022-12-16T21:20:25.454Z,91427.34
2022-12-16T21:23:17.378Z,91499.25
2022-12-16T21:26:03.080Z,91517.19
2022-12-16T21:28:49.176Z,91592.28
2022-12-16T21:31:35.208Z,91648.84
2022-12-16T21:34:23.303Z,91677.06
2022-12-16T21:37:09.331Z,91687.34
2022-12-16T21:39:54.625Z,91657.53
2022-12-16T21:42:44.141Z,91654.81
2022-12-16T21:45:30.449Z,91636.63
2022-12-16T21:48:15.878Z,91622.06
2022-12-16T21:51:08.863Z,91580.06
2022-12-16T21:53:54.696Z,91542.41
2022-12-16T21:56:44.246Z,91505.97
2022-12-16T21:59:29.411Z,91513.25
2022-12-16T22:02:14.826Z,91495.91
2022-12-16T22:04:59.993Z,91462.03
2022-12-16T22:07:49.112Z,91384.84
2022-12-16T22:10:35.037Z,91294.31
2022-12-16T22:13:20.433Z,91205.41
2022-12-16T22:16:13.591Z,91157.88
2022-12-16T22:18:59.609Z,91052.53
2022-12-16T22:21:46.006Z,90948.28
2022-12-16T22:24:32.576Z,90863.69
2022-12-16T22:27:18.308Z,90852.88
2022-12-16T22:30:03.884Z,90852.31
2022-12-16T22:32:49.113Z,90866.03
2022-12-16T22:35:34.722Z,90802.84
2022-12-16T22:38:20.220Z,90751.31
2022-12-16T22:41:13.769Z,90685.84
2022-12-16T22:43:59.136Z,90626.69
2022-12-16T22:46:44.529Z,90643.75
2022-12-16T22:49:30.147Z,90694.66
2022-12-16T22:52:15.561Z,90702.09
2022-12-16T22:55:00.888Z,90670.97
2022-12-16T22:57:56.881Z,90714.22
2022-12-16T23:00:42.277Z,90831.91
2022-12-16T23:03:34.012Z,90829.56
2022-12-16T23:06:19.639Z,90855.44
2022-12-16T23:09:04.938Z,90792.06
2022-12-16T23:11:53.267Z,90758.56
2022-12-16T23:14:43.822Z,90726.59
2022-12-16T23:17:29.632Z,90731.69
2022-12-16T23:20:14.860Z,90702.88
2022-12-16T23:23:00.505Z,90702.88
2022-12-16T23:32:00.595Z,90997.31
2022-12-16T23:34:46.425Z,91044.28
2022-12-16T23:37:32.271Z,91104.00
2022-12-16T23:40:18.005Z,91120.50
2022-12-16T23:43:18.407Z,91137.00
2022-12-16T23:46:04.048Z,91153.53
2022-12-16T23:48:50.858Z,91127.19
2022-12-16T23:51:37.523Z,91107.53
2022-12-16T23:54:23.379Z,91091.81
2022-12-16T23:57:08.824Z,91068.25
2022-12-16T23:59:54.540Z,91119.72
